createdAt,value
2022-11-05T00:00:47.309Z,99674.75
2022-11-05T00:02:04.176Z,99672.31
2022-11-05T00:03:21.049Z,99669.53
2022-11-05T00:04:37.941Z,99657.00
2022-11-05T00:05:54.750Z,99662.00
2022-11-05T00:07:12.105Z,99662.00
2022-11-05T00:08:37.796Z,99670.88
2022-11-05T00:09:42.145Z,99669.28
2022-11-05T00:10:46.610Z,99661.03
2022-11-05T00:12:03.399Z,99675.00
2022-11-05T00:13:21.014Z,99676.47
2022-11-05T00:14:37.886Z,99675.50
2022-11-05T00:15:54.695Z,99674.53
2022-11-05T00:16:59.102Z,99675.97
2022-11-05T00:18:03.576Z,99677.09
2022-11-05T00:19:09.096Z,99670.63
2022-11-05T00:20:13.799Z,99677.69
2022-11-05T00:21:30.420Z,99679.38
2022-11-05T00:22:47.202Z,99668.69
2022-11-05T00:24:04.040Z,99675.75
2022-11-05T00:25:17.456Z,99677.44
2022-11-05T00:26:21.817Z,99678.31
2022-11-05T00:27:23.583Z,99675.63
2022-11-05T00:28:28.444Z,99670.41
2022-11-05T00:29:30.208Z,99678.06
2022-11-05T00:30:36.056Z,99675.97
2022-11-05T00:31:37.885Z,99676.72
2022-11-05T00:32:42.304Z,99680.59
2022-11-05T00:33:44.085Z,99677.94
2022-11-05T00:34:48.493Z,99670.91
2022-11-05T00:35:52.901Z,99668.97
2022-11-05T00:36:54.703Z,99661.06
2022-11-05T00:37:59.121Z,99663.72
2022-11-05T00:39:00.899Z,99664.31
2022-11-05T00:40:05.980Z,99660.66
2022-11-05T00:41:08.153Z,99659.69
2022-11-05T00:42:24.941Z,99654.34
2022-11-05T00:43:41.835Z,99665.03
2022-11-05T00:44:58.647Z,99657.00
2022-11-05T00:46:03.109Z,99655.66
2022-11-05T00:47:19.804Z,99658.06
2022-11-05T00:48:36.706Z,99660.63
2022-11-05T00:49:38.500Z,99661.25
2022-11-05T00:50:43.023Z,99657.72
2022-11-05T00:51:44.852Z,99657.22
2022-11-05T00:52:56.037Z,99659.16
2022-11-05T00:54:00.397Z,99654.78
2022-11-05T00:55:02.178Z,99653.59
2022-11-05T00:56:06.901Z,99646.75
2022-11-05T00:57:08.817Z,99648.72
2022-11-05T00:58:20.452Z,99648.00
2022-11-05T00:59:22.461Z,99632.94
2022-11-05T01:00:27.788Z,99643.63
2022-11-05T01:01:32.274Z,99640.72
2022-11-05T01:02:34.365Z,99651.50
2022-11-05T01:03:39.504Z,99654.28
2022-11-05T01:04:41.305Z,99641.06
2022-11-05T01:05:49.878Z,99638.72
2022-11-05T01:06:52.095Z,99641.41
2022-11-05T01:07:56.806Z,99639.47
2022-11-05T01:08:58.835Z,99642.75
2022-11-05T01:10:04.092Z,99643.00
2022-11-05T01:11:33.480Z,99645.78
2022-11-05T01:12:35.724Z,99643.84
2022-11-05T01:13:40.571Z,99643.84
2022-11-05T01:14:42.702Z,99647.69
2022-11-05T01:15:47.784Z,99644.91
2022-11-05T01:16:52.499Z,99648.56
2022-11-05T01:17:56.942Z,99652.81
2022-11-05T01:18:58.756Z,99649.28
2022-11-05T01:20:03.325Z,99655.59
2022-11-05T01:21:16.998Z,99651.09
2022-11-05T01:22:18.805Z,99642.84
2022-11-05T01:23:24.112Z,99658.16
2022-11-05T01:24:25.888Z,99660.09
2022-11-05T01:25:30.235Z,99660.81
2022-11-05T01:26:32.087Z,99665.19
2022-11-05T01:27:36.456Z,99667.97
2022-11-05T01:28:38.306Z,99675.88
2022-11-05T01:29:42.831Z,99674.91
2022-11-05T01:30:47.205Z,99673.31
2022-11-05T01:31:48.986Z,99671.38
2022-11-05T01:32:53.381Z,99669.78
2022-11-05T01:33:55.163Z,99658.38
2022-11-05T01:34:59.543Z,99677.81
2022-11-05T01:36:01.341Z,99666.28
2022-11-05T01:37:05.766Z,99665.19
2022-11-05T01:38:10.149Z,99678.75
2022-11-05T01:39:11.976Z,99671.63
2022-11-05T01:40:18.498Z,99675.41
2022-11-05T01:41:20.334Z,99671.03
2022-11-05T01:42:25.515Z,99673.44
2022-11-05T01:43:27.363Z,99680.59
2022-11-05T01:44:50.652Z,99676.09
2022-11-05T01:45:56.241Z,99679.50
2022-11-05T01:46:58.065Z,99693.59
2022-11-05T01:48:04.372Z,99691.66
2022-11-05T01:49:11.220Z,99684.41
2022-11-05T01:50:24.566Z,99687.81
2022-11-05T01:51:29.045Z,99685.00
2022-11-05T01:52:31.322Z,99676.03
2022-11-05T01:53:39.931Z,99683.91
2022-11-05T01:54:41.794Z,99676.66
2022-11-05T01:55:47.457Z,99681.88
2022-11-05T01:56:50.657Z,99687.00
2022-11-05T01:57:55.447Z,99679.94
2022-11-05T01:59:02.038Z,99677.00
2022-11-05T02:00:04.225Z,99683.94
2022-11-05T02:01:17.854Z,99686.38
2022-11-05T02:02:19.855Z,99681.03
2022-11-05T02:03:24.400Z,99692.47
2022-11-05T02:04:37.237Z,99680.72
2022-11-05T02:05:42.617Z,99689.56
2022-11-05T02:06:46.664Z,99689.56
2022-11-05T02:07:51.142Z,99685.31
2022-11-05T02:08:55.358Z,99686.16
2022-11-05T02:10:13.808Z,99691.50
2022-11-05T02:11:17.350Z,99689.78
2022-11-05T02:12:21.833Z,99688.09
2022-11-05T02:13:23.662Z,99683.50
2022-11-05T02:14:28.085Z,99694.91
2022-11-05T02:15:41.957Z,99679.84
2022-11-05T02:17:04.056Z,99687.88
2022-11-05T02:18:14.133Z,99687.88
2022-11-05T02:19:21.382Z,99684.22
2022-11-05T02:20:39.035Z,99684.47
2022-11-05T02:21:48.313Z,99678.25
2022-11-05T02:23:05.008Z,99667.47
2022-11-05T02:24:17.861Z,99674.63
2022-11-05T02:25:28.126Z,99673.78
2022-11-05T02:26:29.852Z,99687.88
2022-11-05T02:27:46.412Z,99675.47
2022-11-05T02:29:00.383Z,99680.09
2022-11-05T02:30:07.822Z,99679.34
2022-11-05T02:31:24.835Z,99661.84
2022-11-05T02:32:29.229Z,99684.69
2022-11-05T02:33:40.108Z,99681.16
2022-11-05T02:34:58.752Z,99676.56
2022-11-05T02:36:00.564Z,99682.75
2022-11-05T02:37:16.525Z,99677.41
2022-11-05T02:38:21.972Z,99688.09
2022-11-05T02:39:38.118Z,99690.03
2022-11-05T02:40:49.768Z,99699.84
2022-11-05T02:41:54.101Z,99692.81
2022-11-05T02:43:07.916Z,99697.28
2022-11-05T02:44:24.821Z,99693.78
2022-11-05T02:45:33.797Z,99698.16
2022-11-05T02:46:53.457Z,99697.28
2022-11-05T02:48:14.713Z,99704.34
2022-11-05T02:49:25.486Z,99703.50
2022-11-05T02:50:30.900Z,99694.88
2022-11-05T02:51:40.774Z,99702.63
2022-11-05T02:52:54.104Z,99702.63
2022-11-05T02:54:03.584Z,99706.28
2022-11-05T02:55:10.833Z,99708.94
2022-11-05T02:56:18.973Z,99703.59
2022-11-05T02:57:23.629Z,99706.28
2022-11-05T02:58:31.477Z,99710.16
2022-11-05T02:59:33.303Z,99718.91
2022-11-05T03:00:37.899Z,99708.25
2022-11-05T03:01:42.447Z,99701.03
2022-11-05T03:02:44.471Z,99710.91
2022-11-05T03:03:50.295Z,99713.56
2022-11-05T03:04:52.053Z,99707.38
2022-11-05T03:06:06.200Z,99699.38
2022-11-05T03:07:10.534Z,99704.81
2022-11-05T03:08:15.468Z,99702.91
2022-11-05T03:09:22.908Z,99702.03
2022-11-05T03:10:35.098Z,99702.91
2022-11-05T03:11:58.636Z,99703.84
2022-11-05T03:13:15.796Z,99705.78
2022-11-05T03:14:36.299Z,99712.09
2022-11-05T03:15:49.702Z,99713.06
2022-11-05T03:16:59.978Z,99714.03
2022-11-05T03:18:30.342Z,99718.50
2022-11-05T03:19:39.079Z,99713.16
2022-11-05T03:20:40.809Z,99715.09
2022-11-05T03:21:48.098Z,99723.00
2022-11-05T03:22:52.540Z,99727.38
2022-11-05T03:23:59.208Z,99724.72
2022-11-05T03:25:02.978Z,99727.50
2022-11-05T03:26:13.213Z,99723.09
2022-11-05T03:27:19.761Z,99735.38
2022-11-05T03:28:25.013Z,99741.56
2022-11-05T03:29:27.625Z,99738.06
2022-11-05T03:30:32.110Z,99739.75
2022-11-05T03:31:34.094Z,99735.38
2022-11-05T03:32:39.183Z,99728.34
2022-11-05T03:33:41.669Z,99729.31
2022-11-05T03:34:47.468Z,99726.63
2022-11-05T03:35:50.990Z,99725.78
2022-11-05T03:36:56.067Z,99730.28
2022-11-05T03:38:02.425Z,99719.59
2022-11-05T03:39:08.217Z,99724.94
2022-11-05T03:40:10.271Z,99724.94
2022-11-05T03:41:14.884Z,99734.75
2022-11-05T03:42:17.985Z,99730.28
2022-11-05T03:43:22.384Z,99734.75
2022-11-05T03:44:25.942Z,99728.56
2022-11-05T03:45:38.349Z,99731.97
2022-11-05T03:46:44.365Z,99733.69
2022-11-05T03:47:48.997Z,99739.75
2022-11-05T03:48:53.022Z,99736.22
2022-11-05T03:49:58.820Z,99739.75
2022-11-05T03:51:03.593Z,99739.75
2022-11-05T03:52:10.144Z,99746.06
2022-11-05T03:53:16.256Z,99741.47
2022-11-05T03:54:20.705Z,99750.31
2022-11-05T03:55:23.382Z,99751.41
2022-11-05T03:56:36.284Z,99753.97
2022-11-05T03:57:38.711Z,99752.25
2022-11-05T03:58:45.955Z,99756.75
2022-11-05T03:59:51.916Z,99758.56
2022-11-05T04:00:53.824Z,99759.41
2022-11-05T04:01:58.372Z,99754.06
2022-11-05T04:03:00.354Z,99757.59
2022-11-05T04:04:04.827Z,99751.41
2022-11-05T04:05:06.679Z,99755.88
2022-11-05T04:06:23.670Z,99757.72
2022-11-05T04:07:40.465Z,99758.78
2022-11-05T04:08:57.293Z,99751.63
2022-11-05T04:10:14.528Z,99751.63
2022-11-05T04:11:31.317Z,99756.69
2022-11-05T04:12:47.906Z,99753.81
2022-11-05T04:13:52.404Z,99758.28
2022-11-05T04:14:54.174Z,99750.41
2022-11-05T04:16:11.332Z,99746.34
2022-11-05T04:17:15.755Z,99747.22
2022-11-05T04:18:17.503Z,99750.84
2022-11-05T04:19:40.673Z,99762.25
2022-11-05T04:20:57.545Z,99766.84
2022-11-05T04:22:23.214Z,99771.22
2022-11-05T04:23:40.037Z,99779.00
2022-11-05T04:24:44.379Z,99787.03
2022-11-05T04:25:48.775Z,99785.22
2022-11-05T04:26:50.623Z,99777.31
2022-11-05T04:27:55.112Z,99766.63
2022-11-05T04:29:11.901Z,99774.53
2022-11-05T04:30:20.663Z,99776.47
2022-11-05T04:31:22.527Z,99773.91
2022-11-05T04:32:26.944Z,99779.97
2022-11-05T04:33:28.765Z,99771.97
2022-11-05T04:34:33.225Z,99777.31
2022-11-05T04:35:35.008Z,99787.03
2022-11-05T04:36:39.392Z,99778.06
2022-11-05T04:37:41.240Z,99788.72
2022-11-05T04:38:45.643Z,99791.41
2022-11-05T04:39:47.414Z,99793.09
2022-11-05T04:40:51.783Z,99794.81
2022-11-05T04:41:53.685Z,99795.78
2022-11-05T04:42:58.620Z,99800.16
2022-11-05T04:44:00.452Z,99801.84
2022-11-05T04:45:04.817Z,99799.19
2022-11-05T04:46:06.637Z,99807.19
2022-11-05T04:47:11.017Z,99806.47
2022-11-05T04:48:12.895Z,99803.78
2022-11-05T04:49:17.313Z,99808.28
2022-11-05T04:50:19.075Z,99795.88
2022-11-05T04:51:23.450Z,99801.34
2022-11-05T04:52:25.226Z,99784.56
2022-11-05T04:53:29.637Z,99786.50
2022-11-05T04:54:31.573Z,99786.75
2022-11-05T04:55:35.984Z,99778.97
2022-11-05T04:56:37.774Z,99785.47
2022-11-05T04:57:42.259Z,99781.00
2022-11-05T04:58:44.344Z,99791.06
2022-11-05T04:59:52.061Z,99780.81
2022-11-05T05:00:53.976Z,99783.97
2022-11-05T05:01:58.527Z,99793.63
2022-11-05T05:03:03.149Z,99793.53
2022-11-05T05:04:04.978Z,99798.88
2022-11-05T05:05:09.481Z,99792.81
2022-11-05T05:06:11.269Z,99800.19
2022-11-05T05:07:15.723Z,99791.31
2022-11-05T05:08:17.547Z,99800.06
2022-11-05T05:09:21.934Z,99795.81
2022-11-05T05:10:23.729Z,99804.31
2022-11-05T05:11:28.097Z,99802.63
2022-11-05T05:12:29.872Z,99800.94
2022-11-05T05:13:34.324Z,99808.81
2022-11-05T05:14:36.193Z,99811.34
2022-11-05T05:15:40.576Z,99803.34
2022-11-05T05:16:42.335Z,99803.50
2022-11-05T05:17:46.774Z,99806.00
2022-11-05T05:18:48.830Z,99803.50
2022-11-05T05:20:05.669Z,99794.09
2022-11-05T05:21:23.585Z,99813.16
2022-11-05T05:22:28.017Z,99810.63
2022-11-05T05:23:29.804Z,99808.94
2022-11-05T05:24:34.186Z,99809.03
2022-11-05T05:25:35.971Z,99811.59
2022-11-05T05:26:40.882Z,99814.59
2022-11-05T05:27:42.625Z,99820.56
2022-11-05T05:28:46.980Z,99819.72
2022-11-05T05:29:48.926Z,99837.53
2022-11-05T05:30:58.541Z,99831.44
2022-11-05T05:32:00.527Z,99829.94
2022-11-05T05:33:06.040Z,99829.94
2022-11-05T05:34:08.131Z,99820.13
2022-11-05T05:35:12.802Z,99841.47
2022-11-05T05:36:14.951Z,99829.34
2022-11-05T05:37:19.397Z,99832.13
2022-11-05T05:38:21.215Z,99841.09
2022-11-05T05:39:27.013Z,99830.41
2022-11-05T05:40:28.766Z,99834.25
2022-11-05T05:41:33.131Z,99825.50
2022-11-05T05:42:41.739Z,99822.94
2022-11-05T05:43:47.581Z,99835.56
2022-11-05T05:44:49.353Z,99818.69
2022-11-05T05:45:53.840Z,99832.13
2022-11-05T05:46:55.619Z,99836.06
2022-11-05T05:48:00.493Z,99830.75
2022-11-05T05:49:04.517Z,99832.66
2022-11-05T05:50:12.321Z,99835.31
2022-11-05T05:51:14.064Z,99830.84
2022-11-05T05:52:18.408Z,99834.47
2022-11-05T05:53:20.255Z,99834.38
2022-11-05T05:54:29.278Z,99835.97
2022-11-05T05:55:34.063Z,99844.06
2022-11-05T05:56:38.509Z,99842.38
2022-11-05T05:57:40.907Z,99840.66
2022-11-05T05:58:45.639Z,99838.97
2022-11-05T05:59:47.411Z,99841.50
2022-11-05T06:00:51.778Z,99832.78
2022-11-05T06:01:53.696Z,99836.19
2022-11-05T06:02:58.638Z,99831.69
2022-11-05T06:04:00.449Z,99839.50
2022-11-05T06:05:04.866Z,99842.16
2022-11-05T06:06:07.591Z,99853.47
2022-11-05T06:07:12.023Z,99850.69
2022-11-05T06:08:13.833Z,99847.06
2022-11-05T06:09:18.477Z,99852.16
2022-11-05T06:10:20.287Z,99851.09
2022-11-05T06:11:25.500Z,99844.91
2022-11-05T06:12:29.303Z,99841.28
2022-11-05T06:13:33.817Z,99847.47
2022-11-05T06:14:35.626Z,99853.88
2022-11-05T06:15:39.989Z,99853.78
2022-11-05T06:16:41.769Z,99859.97
2022-11-05T06:17:46.868Z,99857.50
2022-11-05T06:18:48.657Z,99864.53
2022-11-05T06:19:53.018Z,99863.59
2022-11-05T06:20:55.978Z,99861.97
2022-11-05T06:22:00.334Z,99857.50
2022-11-05T06:23:02.617Z,99859.22
2022-11-05T06:24:07.148Z,99859.22
2022-11-05T06:25:09.267Z,99865.41
2022-11-05T06:26:14.543Z,99863.81
2022-11-05T06:27:16.286Z,99866.47
2022-11-05T06:28:20.661Z,99869.88
2022-11-05T06:29:22.488Z,99867.97
2022-11-05T06:30:26.947Z,99869.88
2022-11-05T06:31:28.778Z,99871.59
2022-11-05T06:32:33.428Z,99875.97
2022-11-05T06:33:35.174Z,99877.13
2022-11-05T06:34:39.645Z,99875.00
2022-11-05T06:35:44.031Z,99883.00
2022-11-05T06:36:48.443Z,99873.94
2022-11-05T06:37:50.200Z,99875.41
2022-11-05T06:38:54.659Z,99868.16
2022-11-05T06:39:57.317Z,99872.31
2022-11-05T06:41:07.252Z,99865.06
2022-11-05T06:42:18.369Z,99869.94
2022-11-05T06:43:23.243Z,99882.00
2022-11-05T06:44:25.142Z,99883.47
2022-11-05T06:45:29.568Z,99882.41
2022-11-05T06:46:31.861Z,99893.72
2022-11-05T06:47:36.218Z,99895.22
2022-11-05T06:48:38.198Z,99893.28
2022-11-05T06:49:42.595Z,99887.94
2022-11-05T06:50:45.262Z,99892.44
2022-11-05T06:51:49.684Z,99894.13
2022-11-05T06:52:58.065Z,99902.13
2022-11-05T06:54:03.185Z,99894.97
2022-11-05T06:55:06.094Z,99903.84
2022-11-05T06:56:10.806Z,99903.72
2022-11-05T06:57:12.820Z,99896.69
2022-11-05T06:58:17.829Z,99897.91
2022-11-05T06:59:22.249Z,99898.75
2022-11-05T07:00:24.274Z,99893.72
2022-11-05T07:01:28.884Z,99906.00
2022-11-05T07:02:30.880Z,99904.09
2022-11-05T07:03:35.298Z,99901.28
2022-11-05T07:04:37.151Z,99901.81
2022-11-05T07:05:42.218Z,99908.66
2022-11-05T07:06:44.105Z,99896.91
2022-11-05T07:07:48.621Z,99904.44
2022-11-05T07:08:50.396Z,99897.94
2022-11-05T07:09:55.304Z,99900.50
2022-11-05T07:10:57.123Z,99904.50
2022-11-05T07:12:01.528Z,99905.16
2022-11-05T07:13:07.785Z,99894.00
2022-11-05T07:14:13.016Z,99905.22
2022-11-05T07:15:14.854Z,99901.97
2022-11-05T07:16:19.220Z,99905.78
2022-11-05T07:17:20.989Z,99910.44
2022-11-05T07:18:25.494Z,99907.06
2022-11-05T07:19:27.277Z,99909.91
2022-11-05T07:20:34.294Z,99907.41
2022-11-05T07:21:36.353Z,99913.78
2022-11-05T07:22:40.872Z,99914.16
2022-11-05T07:23:45.352Z,99927.88
2022-11-05T07:24:48.182Z,99930.09
2022-11-05T07:25:52.598Z,99927.94
2022-11-05T07:26:55.325Z,99930.63
2022-11-05T07:27:59.766Z,99925.75
2022-11-05T07:29:01.688Z,99930.88
2022-11-05T07:30:06.416Z,99937.69
2022-11-05T07:31:10.920Z,99936.00
2022-11-05T07:32:12.764Z,99944.72
2022-11-05T07:33:17.298Z,99948.88
2022-11-05T07:34:19.100Z,99945.13
2022-11-05T07:35:23.562Z,99949.38
2022-11-05T07:36:25.651Z,99948.41
2022-11-05T07:37:30.131Z,99957.16
2022-11-05T07:38:34.565Z,99958.00
2022-11-05T07:39:36.596Z,99955.69
2022-11-05T07:40:41.029Z,99960.09
2022-11-05T07:41:42.828Z,99957.53
2022-11-05T07:42:48.286Z,99954.13
2022-11-05T07:43:50.167Z,99956.06
2022-11-05T07:44:54.626Z,99949.84
2022-11-05T07:45:59.537Z,99962.25
2022-11-05T07:47:01.341Z,99966.88
2022-11-05T07:48:06.944Z,99969.53
2022-11-05T07:49:08.925Z,99971.47
2022-11-05T07:50:13.370Z,99969.81
2022-11-05T07:51:15.232Z,99969.81
2022-11-05T07:52:19.616Z,99974.53
2022-11-05T07:53:21.456Z,99968.44
2022-11-05T07:54:26.878Z,99977.31
2022-11-05T07:55:28.659Z,99985.34
2022-11-05T07:56:33.056Z,99973.91
2022-11-05T07:57:45.231Z,99981.19
2022-11-05T07:58:49.762Z,99988.47
2022-11-05T07:59:51.574Z,99992.16
2022-11-05T08:00:56.485Z,99990.44
2022-11-05T08:01:58.624Z,99997.72
2022-11-05T08:03:07.645Z,99997.84
2022-11-05T08:04:10.172Z,99994.53
2022-11-05T08:05:15.001Z,100005.44
2022-11-05T08:06:16.803Z,100000.34
2022-11-05T08:07:21.210Z,100005.81
2022-11-05T08:08:25.623Z,100004.22
2022-11-05T08:09:27.488Z,99998.13
2022-11-05T08:10:31.926Z,100001.66
2022-11-05T08:11:35.196Z,99998.88
2022-11-05T08:12:39.557Z,100003.25
2022-11-05T08:13:42.898Z,100001.44
2022-11-05T08:14:47.262Z,99999.38
2022-11-05T08:15:49.079Z,99994.75
2022-11-05T08:16:53.609Z,99996.22
2022-11-05T08:18:16.685Z,100000.41
2022-11-05T08:19:18.683Z,100000.66
2022-11-05T08:20:23.183Z,99994.97
2022-11-05T08:21:27.595Z,99991.91
2022-11-05T08:22:32.012Z,99996.94
2022-11-05T08:23:33.858Z,99997.66
2022-11-05T08:24:38.253Z,99988.56
2022-11-05T08:25:40.136Z,99986.34
2022-11-05T08:26:44.561Z,99994.91
2022-11-05T08:27:46.335Z,99983.69
2022-11-05T08:28:50.694Z,99985.91
2022-11-05T08:29:52.528Z,99993.44
2022-11-05T08:30:57.981Z,100000.03
2022-11-05T08:31:59.763Z,99996.03
2022-11-05T08:33:05.522Z,100003.69
2022-11-05T08:34:09.901Z,100001.63
2022-11-05T08:35:11.753Z,100001.38
2022-11-05T08:36:16.314Z,100007.34
2022-11-05T08:37:18.572Z,100000.28
2022-11-05T08:38:22.955Z,100010.88
2022-11-05T08:39:24.807Z,100009.06
2022-11-05T08:40:29.365Z,100002.00
2022-11-05T08:41:33.768Z,100007.34
2022-11-05T08:42:35.674Z,100000.28
2022-11-05T08:43:40.045Z,100003.94
2022-11-05T08:44:41.840Z,100001.38
2022-11-05T08:45:46.343Z,99995.28
2022-11-05T08:46:50.805Z,100013.22
2022-11-05T08:47:58.407Z,100001.03
2022-11-05T08:49:02.814Z,100010.03
2022-11-05T08:50:04.711Z,100011.97
2022-11-05T08:51:09.140Z,100006.84
2022-11-05T08:52:10.933Z,100008.09
2022-11-05T08:53:15.719Z,100009.28
2022-11-05T08:54:17.726Z,100012.06
2022-11-05T08:55:22.115Z,100014.88
2022-11-05T08:56:23.986Z,100016.69
2022-11-05T08:57:28.423Z,100018.50
2022-11-05T08:58:30.230Z,100027.50
2022-11-05T08:59:36.404Z,100027.41
2022-11-05T09:00:38.431Z,100032.75
2022-11-05T09:01:42.915Z,100039.94
2022-11-05T09:02:44.839Z,100035.53
2022-11-05T09:03:49.356Z,100035.53
2022-11-05T09:04:51.147Z,100041.75
2022-11-05T09:05:55.516Z,100039.94
2022-11-05T09:07:00.004Z,100054.91
2022-11-05T09:08:01.838Z,100052.13
2022-11-05T09:09:06.271Z,100043.00
2022-11-05T09:10:08.195Z,100039.25
2022-11-05T09:11:12.547Z,100032.53
2022-11-05T09:12:14.459Z,100037.53
2022-11-05T09:13:20.332Z,100039.00
2022-11-05T09:14:22.587Z,100047.53
2022-11-05T09:15:27.212Z,100045.34
2022-11-05T09:16:34.340Z,100036.47
2022-11-05T09:17:36.736Z,100053.44
2022-11-05T09:18:42.463Z,100043.41
2022-11-05T09:19:44.251Z,100045.38
2022-11-05T09:20:48.767Z,100055.88
2022-11-05T09:21:50.596Z,100053.41
2022-11-05T09:22:54.997Z,100051.94
2022-11-05T09:23:59.472Z,100053.16
2022-11-05T09:25:01.277Z,100060.44
2022-11-05T09:26:05.721Z,100050.91
2022-11-05T09:27:11.973Z,100066.50
2022-11-05T09:28:16.780Z,100063.06
2022-11-05T09:29:21.938Z,100067.22
2022-11-05T09:30:23.747Z,100062.31
2022-11-05T09:31:28.164Z,100065.84
2022-11-05T09:32:31.130Z,100067.53
2022-11-05T09:33:35.511Z,100067.53
2022-11-05T09:34:39.935Z,100073.03
2022-11-05T09:35:41.801Z,100070.63
2022-11-05T09:36:46.256Z,100074.28
2022-11-05T09:37:48.024Z,100067.22
2022-11-05T09:38:52.445Z,100074.53
2022-11-05T09:39:54.478Z,100070.25
2022-11-05T09:41:00.985Z,100067.69
2022-11-05T09:42:04.170Z,100070.91
2022-11-05T09:43:08.700Z,100072.13
2022-11-05T09:44:16.899Z,100072.38
2022-11-05T09:45:19.540Z,100069.22
2022-11-05T09:46:25.573Z,100078.34
2022-11-05T09:47:32.489Z,100078.47
2022-11-05T09:48:37.165Z,100074.09
2022-11-05T09:49:40.073Z,100075.06
2022-11-05T09:50:47.964Z,100080.44
2022-11-05T09:51:49.741Z,100084.94
2022-11-05T09:52:54.599Z,100084.09
2022-11-05T09:53:59.581Z,100092.13
2022-11-05T09:55:03.736Z,100089.44
2022-11-05T09:56:08.652Z,100086.06
2022-11-05T09:57:12.174Z,100088.88
2022-11-05T09:58:38.332Z,100099.81
2022-11-05T09:59:47.597Z,100105.53
2022-11-05T10:00:52.387Z,100101.44
2022-11-05T10:02:26.346Z,100098.25
2022-11-05T10:03:31.896Z,100107.75
2022-11-05T10:04:36.382Z,100120.66
2022-11-05T10:05:40.854Z,100112.13
2022-11-05T10:06:46.228Z,100122.34
2022-11-05T10:07:52.010Z,100114.78
2022-11-05T10:09:16.681Z,100118.66
2022-11-05T10:10:25.653Z,100122.53
2022-11-05T10:11:35.105Z,100122.78
2022-11-05T10:12:40.676Z,100121.06
2022-11-05T10:13:49.077Z,100122.19
2022-11-05T10:14:54.977Z,100124.00
2022-11-05T10:15:59.699Z,100117.91
2022-11-05T10:17:06.138Z,100121.56
2022-11-05T10:18:22.565Z,100119.84
2022-11-05T10:19:27.784Z,100120.69
2022-11-05T10:20:34.865Z,100119.97
2022-11-05T10:22:05.088Z,100122.63
2022-11-05T10:23:17.497Z,100137.84
2022-11-05T10:24:19.842Z,100123.00
2022-11-05T10:25:32.610Z,100129.72
2022-11-05T10:26:34.459Z,100135.69
2022-11-05T10:27:39.512Z,100136.44
2022-11-05T10:28:44.508Z,100130.69
2022-11-05T10:29:46.569Z,100129.72
2022-11-05T10:30:51.856Z,100134.97
2022-11-05T10:31:53.832Z,100138.38
2022-11-05T10:32:59.680Z,100129.38
2022-11-05T10:34:04.312Z,100134.75
2022-11-05T10:35:07.207Z,100138.19
2022-11-05T10:36:25.974Z,100141.56
2022-11-05T10:37:30.663Z,100138.91
2022-11-05T10:38:32.766Z,100142.44
2022-11-05T10:39:37.228Z,100137.06
2022-11-05T10:40:56.014Z,100142.31
2022-11-05T10:41:57.855Z,100141.34
2022-11-05T10:43:07.286Z,100133.31
2022-11-05T10:44:18.511Z,100141.34
2022-11-05T10:45:32.988Z,100132.56
2022-11-05T10:46:37.909Z,100142.19
2022-11-05T10:47:55.338Z,100148.41
2022-11-05T10:48:57.098Z,100144.75
2022-11-05T10:50:02.501Z,100144.75
2022-11-05T10:51:07.404Z,100134.06
2022-11-05T10:52:18.881Z,100133.94
2022-11-05T10:53:25.329Z,100137.22
2022-11-05T10:54:30.686Z,100142.22
2022-11-05T10:55:35.467Z,100127.97
2022-11-05T10:56:38.529Z,100139.31
2022-11-05T10:57:43.378Z,100127.50
2022-11-05T10:58:56.311Z,100129.91
2022-11-05T11:00:16.448Z,100131.50
2022-11-05T11:01:21.746Z,100128.47
2022-11-05T11:02:25.992Z,100136.41
2022-11-05T11:03:33.041Z,100137.97
2022-11-05T11:04:38.206Z,100148.56
2022-11-05T11:05:40.168Z,100146.72
2022-11-05T11:06:51.161Z,100147.47
2022-11-05T11:07:57.305Z,100151.13
2022-11-05T11:09:02.944Z,100150.16
2022-11-05T11:10:04.963Z,100158.19
2022-11-05T11:11:11.006Z,100152.34
2022-11-05T11:12:17.057Z,100148.94
2022-11-05T11:13:23.584Z,100149.19
2022-11-05T11:14:28.049Z,100152.09
2022-11-05T11:15:32.695Z,100156.00
2022-11-05T11:16:41.569Z,100156.25
2022-11-05T11:17:43.357Z,100154.75
2022-11-05T11:18:47.780Z,100156.84
2022-11-05T11:19:49.562Z,100156.13
2022-11-05T11:20:53.969Z,100160.84
2022-11-05T11:22:04.975Z,100162.78
2022-11-05T11:23:19.211Z,100163.88
2022-11-05T11:24:23.226Z,100157.91
2022-11-05T11:25:28.176Z,100161.53
2022-11-05T11:26:34.290Z,100164.22
2022-11-05T11:27:36.085Z,100161.75
2022-11-05T11:28:41.362Z,100158.34
2022-11-05T11:29:48.186Z,100160.28
2022-11-05T11:30:55.555Z,100156.03
2022-11-05T11:31:57.614Z,100153.47
2022-11-05T11:33:06.661Z,100157.22
2022-11-05T11:34:34.305Z,100166.34
2022-11-05T11:35:39.540Z,100158.53
2022-11-05T11:36:51.925Z,100157.84
2022-11-05T11:37:54.372Z,100159.66
2022-11-05T11:39:02.299Z,100156.13
2022-11-05T11:40:13.294Z,100151.00
2022-11-05T11:41:17.679Z,100151.84
2022-11-05T11:42:23.946Z,100149.28
2022-11-05T11:43:32.208Z,100148.53
2022-11-05T11:44:35.230Z,100150.38
2022-11-05T11:45:40.655Z,100153.28
2022-11-05T11:46:42.652Z,100145.22
2022-11-05T11:47:47.750Z,100149.75
2022-11-05T11:48:49.774Z,100153.63
2022-11-05T11:49:55.531Z,100151.06
2022-11-05T11:50:58.117Z,100155.56
2022-11-05T11:52:03.842Z,100156.66
2022-11-05T11:53:21.060Z,100155.78
2022-11-05T11:54:29.020Z,100164.81
2022-11-05T11:55:31.059Z,100165.75
2022-11-05T11:56:48.605Z,100164.06
2022-11-05T11:57:54.268Z,100168.69
2022-11-05T11:59:04.568Z,100168.69
2022-11-05T12:00:09.848Z,100176.00
2022-11-05T12:01:20.915Z,100170.63
2022-11-05T12:02:41.196Z,100171.72
2022-11-05T12:03:47.878Z,100183.28
2022-11-05T12:04:55.488Z,100174.50
2022-11-05T12:06:08.861Z,100173.75
2022-11-05T12:07:13.809Z,100176.44
2022-11-05T12:08:42.873Z,100181.78
2022-11-05T12:10:02.570Z,100182.75
2022-11-05T12:11:19.360Z,100184.34
2022-11-05T12:12:27.252Z,100186.91
2022-11-05T12:13:36.051Z,100180.59
2022-11-05T12:14:52.336Z,100183.28
2022-11-05T12:15:58.358Z,100185.94
2022-11-05T12:17:07.384Z,100174.50
2022-11-05T12:18:30.598Z,100183.50
2022-11-05T12:19:40.151Z,100185.31
2022-11-05T12:20:48.460Z,100190.56
2022-11-05T12:21:57.556Z,100188.84
2022-11-05T12:23:05.430Z,100187.13
2022-11-05T12:24:29.510Z,100185.44
2022-11-05T12:25:34.166Z,100190.78
2022-11-05T12:26:47.680Z,100184.56
2022-11-05T12:28:00.714Z,100181.78
2022-11-05T12:29:18.898Z,100186.28
2022-11-05T12:30:23.961Z,100177.50
2022-11-05T12:31:47.200Z,100174.97
2022-11-05T12:32:57.507Z,100171.53
2022-11-05T12:34:14.147Z,100179.56
2022-11-05T12:35:19.036Z,100171.78
2022-11-05T12:36:43.704Z,100174.16
2022-11-05T12:38:00.803Z,100170.53
2022-11-05T12:39:12.993Z,100165.41
2022-11-05T12:40:33.980Z,100170.75
2022-11-05T12:41:56.873Z,100167.09
2022-11-05T12:43:11.557Z,100167.00
2022-11-05T12:44:23.619Z,100168.81
2022-11-05T12:45:46.456Z,100160.91
2022-11-05T12:46:53.892Z,100168.81
2022-11-05T12:48:02.611Z,100163.47
2022-11-05T12:49:19.980Z,100162.50
2022-11-05T12:50:30.640Z,100164.31
2022-11-05T12:52:04.301Z,100161.66
2022-11-05T12:53:14.819Z,100158.34